(°C)
19°
18°
18°
17°
17°
18°
19°
(°C)
20°
19°
19°
18°
18°
19°
19°
D
DDK
DK
DK
DK
DDK
DDK
(km/h)
3-9
3-9
3-10
4-11
4-12
5-13
5-14
(mm)
0
0
0
0
0
0
0
(%)
0
0
0
0
0
0
0

Napfelkelte

/ -30.6°
sun-icon
UV 9
05:44
20:01
Hold (növő sarló) (71°)
11:41
24:00

METAR San Diego (KSAN)-ért

Idő Feltételek Hőmérséklet/
Harmatpont
Szél Látási viszonyok Időjárás Felhők Légnyomás Módosítás Nyers
MVFR 18.9°C / 14.4°C variable 0kt >10km - Broken Clouds 1900ft 1014 - KSAN 050851Z 00000KT 10SM BKN019 19/14 A2996 RMK AO2 SLP144 T01890144 57007
MVFR 18.9°C / 14.4°C 200º 3kt >10km - Broken Clouds 1700ft - KSAN 050812Z 20003KT 10SM BKN017 19/14 A2996 RMK AO2 T01890144
VFR 18.9°C / 14.4°C variable 0kt >10km - Scattered Clouds 1800ft 1014 - KSAN 050751Z 00000KT 10SM SCT018 19/14 A2997 RMK AO2 SLP146 T01890144 402060178
VFR 18.3°C / 14.4°C variable 0kt >10km - Few Clouds 2000ft 1014 - KSAN 050651Z 00000KT 10SM FEW020 18/14 A2997 RMK AO2 SLP149 T01830144
VFR 18.3°C / 13.9°C variable 0kt >10km - Scattered Clouds 2000ft 1015 - KSAN 050551Z 00000KT 10SM SCT020 18/14 A2998 RMK AO2 SLP151 T01830139 10200 20183 51006
VFR 18.3°C / 13.9°C variable 0kt >10km - Few Clouds 500ft
Scattered Clouds 2000ft
1015 - KSAN 050451Z 00000KT 10SM FEW005 SCT020 18/14 A2998 RMK AO2 SLP151 FU FEW005 T01830139
MVFR 18.3°C / 13.9°C 290º 4kt >10km - Few Clouds 500ft
Broken Clouds 2000ft
- KSAN 050413Z 29004KT 10SM FEW005 BKN020 18/14 A2997 RMK AO2 FU FEW005 T01830139
VFR 18.3°C / 13.9°C variable 3kt >10km - Scattered Clouds 1900ft 1014 - KSAN 050351Z VRB03KT 10SM SCT019 18/14 A2997 RMK AO2 SLP148 SCT V BKN T01830139
VFR 18.3°C / 13.9°C 260º 5kt >10km - Scattered Clouds 2000ft 1014 - KSAN 050251Z 26005KT 10SM SCT020 18/14 A2996 RMK AO2 SLP145 T01830139 53002
VFR 19.4°C / 13.9°C 280º 6kt >10km - Scattered Clouds 2000ft 1014 - KSAN 050151Z 28006KT 10SM SCT020 19/14 A2995 RMK AO2 SLP142 T01940139
VFR 19.4°C / 13.3°C 230º 7kt >10km - Scattered Clouds 2000ft 1014 - KSAN 050051Z 23007KT 10SM SCT020 19/13 A2995 RMK AO2 SLP141 T01940133
VFR 20°C / 13.3°C 210º 8kt >10km - Scattered Clouds 2000ft 1014 - KSAN 042351Z 21008KT 10SM SCT020 20/13 A2995 RMK AO2 SLP143 T02000133 10206 20194 56006
VFR 20°C / 13.3°C 190º 9kt Gust 16kt >10km - Few Clouds 2000ft 1014 - KSAN 042251Z 19009G16KT 10SM FEW020 20/13 A2996 RMK AO2 SLP145 T02000133
VFR 20°C / 13.3°C 200º 7kt >10km - Few Clouds 2300ft 1014 - KSAN 042151Z 20007KT 10SM FEW023 20/13 A2997 RMK AO2 SLP147 T02000133
VFR 20°C / 13.3°C 210º 7kt >10km - Scattered Clouds 2300ft 1014 - KSAN 042051Z 21007KT 10SM SCT023 20/13 A2997 RMK AO2 SLP149 T02000133 58003
VFR 20°C / 13.3°C 220º variable 180º to 270º 8kt >10km - Scattered Clouds 2300ft 1015 - KSAN 041951Z 22008KT 180V270 10SM SCT023 20/13 A2998 RMK AO2 SLP151 T02000133
VFR 19.4°C / 12.8°C 220º 10kt Gust 21kt >10km - Few Clouds 2300ft 1015 - KSAN 041851Z 22010G21KT 10SM FEW023 19/13 A2998 RMK AO2 SLP153 T01940128
VFR 20°C / 13.3°C 220º variable 180º to 240º 9kt Gust 15kt >10km - Few Clouds 2300ft 1015 - KSAN 041751Z 22009G15KT 180V240 10SM FEW023 20/13 A2998 RMK AO2 SLP152 T02000133 10200 20178 51005
VFR 19.4°C / 12.8°C 200º variable 160º to 220º 7kt >10km - Scattered Clouds 2300ft 1015 - KSAN 041651Z 20007KT 160V220 10SM SCT023 19/13 A2998 RMK AO2 SLP150 T01940128
VFR 19.4°C / 12.8°C variable 6kt >10km - Scattered Clouds 2300ft - KSAN 041623Z VRB06KT 10SM SCT023 19/13 A2997 RMK AO2 T01940128
MVFR 18.9°C / 12.8°C 230º 6kt >10km - Broken Clouds 2300ft 1015 - KSAN 041551Z 23006KT 10SM BKN023 19/13 A2998 RMK AO2 SLP151 T01890128
MVFR 18.3°C / 12.8°C 170º 5kt >10km - Broken Clouds 2400ft 1014 - KSAN 041451Z 17005KT 10SM BKN024 18/13 A2997 RMK AO2 SLP147 T01830128 53009
MVFR 17.8°C / 12.8°C 230º 6kt >10km - Broken Clouds 2400ft 1014 - KSAN 041351Z 23006KT 10SM BKN024 18/13 A2996 RMK AO2 SLP143 T01780128
MVFR 17.8°C / 13.3°C 250º 6kt >10km - Overcast 2300ft 1014 - KSAN 041251Z 25006KT 10SM OVC023 18/13 A2995 RMK AO2 SLP140 T01780133

MVFR

18.9°C / 14.4°C

[Több]
Szél variable 0kt
Látási viszonyok >10km
Időjárás -
Felhők Broken Clouds 1900ft
Légnyomás 1014
Módosítás -
Nyers KSAN 050851Z 00000KT 10SM BKN019 19/14 A2996 RMK AO2 SLP144 T01890144 57007

MVFR

18.9°C / 14.4°C

[Több]
Szél 200º 3kt
Látási viszonyok >10km
Időjárás -
Felhők Broken Clouds 1700ft
Légnyomás
Módosítás -
Nyers KSAN 050812Z 20003KT 10SM BKN017 19/14 A2996 RMK AO2 T01890144

VFR

18.9°C / 14.4°C

[Több]
Szél variable 0kt
Látási viszonyok >10km
Időjárás -
Felhők Scattered Clouds 1800ft
Légnyomás 1014
Módosítás -
Nyers KSAN 050751Z 00000KT 10SM SCT018 19/14 A2997 RMK AO2 SLP146 T01890144 402060178

VFR

18.3°C / 14.4°C

[Több]
Szél variable 0kt
Látási viszonyok >10km
Időjárás -
Felhők Few Clouds 2000ft
Légnyomás 1014
Módosítás -
Nyers KSAN 050651Z 00000KT 10SM FEW020 18/14 A2997 RMK AO2 SLP149 T01830144

VFR

18.3°C / 13.9°C

[Több]
Szél variable 0kt
Látási viszonyok >10km
Időjárás -
Felhők Scattered Clouds 2000ft
Légnyomás 1015
Módosítás -
Nyers KSAN 050551Z 00000KT 10SM SCT020 18/14 A2998 RMK AO2 SLP151 T01830139 10200 20183 51006

VFR

18.3°C / 13.9°C

[Több]
Szél variable 0kt
Látási viszonyok >10km
Időjárás -
Felhők Few Clouds 500ft
Scattered Clouds 2000ft
Légnyomás 1015
Módosítás -
Nyers KSAN 050451Z 00000KT 10SM FEW005 SCT020 18/14 A2998 RMK AO2 SLP151 FU FEW005 T01830139

MVFR

18.3°C / 13.9°C

[Több]
Szél 290º 4kt
Látási viszonyok >10km
Időjárás -
Felhők Few Clouds 500ft
Broken Clouds 2000ft
Légnyomás
Módosítás -
Nyers KSAN 050413Z 29004KT 10SM FEW005 BKN020 18/14 A2997 RMK AO2 FU FEW005 T01830139

VFR

18.3°C / 13.9°C

[Több]
Szél variable 3kt
Látási viszonyok >10km
Időjárás -
Felhők Scattered Clouds 1900ft
Légnyomás 1014
Módosítás -
Nyers KSAN 050351Z VRB03KT 10SM SCT019 18/14 A2997 RMK AO2 SLP148 SCT V BKN T01830139

VFR

18.3°C / 13.9°C

[Több]
Szél 260º 5kt
Látási viszonyok >10km
Időjárás -
Felhők Scattered Clouds 2000ft
Légnyomás 1014
Módosítás -
Nyers KSAN 050251Z 26005KT 10SM SCT020 18/14 A2996 RMK AO2 SLP145 T01830139 53002

VFR

19.4°C / 13.9°C

[Több]
Szél 280º 6kt
Látási viszonyok >10km
Időjárás -
Felhők Scattered Clouds 2000ft
Légnyomás 1014
Módosítás -
Nyers KSAN 050151Z 28006KT 10SM SCT020 19/14 A2995 RMK AO2 SLP142 T01940139

VFR

19.4°C / 13.3°C

[Több]
Szél 230º 7kt
Látási viszonyok >10km
Időjárás -
Felhők Scattered Clouds 2000ft
Légnyomás 1014
Módosítás -
Nyers KSAN 050051Z 23007KT 10SM SCT020 19/13 A2995 RMK AO2 SLP141 T01940133

VFR

20°C / 13.3°C

[Több]
Szél 210º 8kt
Látási viszonyok >10km
Időjárás -
Felhők Scattered Clouds 2000ft
Légnyomás 1014
Módosítás -
Nyers KSAN 042351Z 21008KT 10SM SCT020 20/13 A2995 RMK AO2 SLP143 T02000133 10206 20194 56006

VFR

20°C / 13.3°C

[Több]
Szél 190º 9kt Gust 16kt
Látási viszonyok >10km
Időjárás -
Felhők Few Clouds 2000ft
Légnyomás 1014
Módosítás -
Nyers KSAN 042251Z 19009G16KT 10SM FEW020 20/13 A2996 RMK AO2 SLP145 T02000133

VFR

20°C / 13.3°C

[Több]
Szél 200º 7kt
Látási viszonyok >10km
Időjárás -
Felhők Few Clouds 2300ft
Légnyomás 1014
Módosítás -
Nyers KSAN 042151Z 20007KT 10SM FEW023 20/13 A2997 RMK AO2 SLP147 T02000133

VFR

20°C / 13.3°C

[Több]
Szél 210º 7kt
Látási viszonyok >10km
Időjárás -
Felhők Scattered Clouds 2300ft
Légnyomás 1014
Módosítás -
Nyers KSAN 042051Z 21007KT 10SM SCT023 20/13 A2997 RMK AO2 SLP149 T02000133 58003

VFR

20°C / 13.3°C

[Több]
Szél 220º variable 180º to 270º 8kt
Látási viszonyok >10km
Időjárás -
Felhők Scattered Clouds 2300ft
Légnyomás 1015
Módosítás -
Nyers KSAN 041951Z 22008KT 180V270 10SM SCT023 20/13 A2998 RMK AO2 SLP151 T02000133

VFR

19.4°C / 12.8°C

[Több]
Szél 220º 10kt Gust 21kt
Látási viszonyok >10km
Időjárás -
Felhők Few Clouds 2300ft
Légnyomás 1015
Módosítás -
Nyers KSAN 041851Z 22010G21KT 10SM FEW023 19/13 A2998 RMK AO2 SLP153 T01940128

VFR

20°C / 13.3°C

[Több]
Szél 220º variable 180º to 240º 9kt Gust 15kt
Látási viszonyok >10km
Időjárás -
Felhők Few Clouds 2300ft
Légnyomás 1015
Módosítás -
Nyers KSAN 041751Z 22009G15KT 180V240 10SM FEW023 20/13 A2998 RMK AO2 SLP152 T02000133 10200 20178 51005

VFR

19.4°C / 12.8°C

[Több]
Szél 200º variable 160º to 220º 7kt
Látási viszonyok >10km
Időjárás -
Felhők Scattered Clouds 2300ft
Légnyomás 1015
Módosítás -
Nyers KSAN 041651Z 20007KT 160V220 10SM SCT023 19/13 A2998 RMK AO2 SLP150 T01940128

VFR

19.4°C / 12.8°C

[Több]
Szél variable 6kt
Látási viszonyok >10km
Időjárás -
Felhők Scattered Clouds 2300ft
Légnyomás
Módosítás -
Nyers KSAN 041623Z VRB06KT 10SM SCT023 19/13 A2997 RMK AO2 T01940128

MVFR

18.9°C / 12.8°C

[Több]
Szél 230º 6kt
Látási viszonyok >10km
Időjárás -
Felhők Broken Clouds 2300ft
Légnyomás 1015
Módosítás -
Nyers KSAN 041551Z 23006KT 10SM BKN023 19/13 A2998 RMK AO2 SLP151 T01890128

MVFR

18.3°C / 12.8°C

[Több]
Szél 170º 5kt
Látási viszonyok >10km
Időjárás -
Felhők Broken Clouds 2400ft
Légnyomás 1014
Módosítás -
Nyers KSAN 041451Z 17005KT 10SM BKN024 18/13 A2997 RMK AO2 SLP147 T01830128 53009

MVFR

17.8°C / 12.8°C

[Több]
Szél 230º 6kt
Látási viszonyok >10km
Időjárás -
Felhők Broken Clouds 2400ft
Légnyomás 1014
Módosítás -
Nyers KSAN 041351Z 23006KT 10SM BKN024 18/13 A2996 RMK AO2 SLP143 T01780128

MVFR

17.8°C / 13.3°C

[Több]
Szél 250º 6kt
Látási viszonyok >10km
Időjárás -
Felhők Overcast 2300ft
Légnyomás 1014
Módosítás -
Nyers KSAN 041251Z 25006KT 10SM OVC023 18/13 A2995 RMK AO2 SLP140 T01780133

TAF San Diego (KSAN)-ért

From till


From till Wind variable 3kt. Visibility 10km or more. Broken Clouds 1800ft.
From till Wind variable 4kt. Visibility 10km or more. Scattered Clouds 2500ft.
From till Wind 270º 10kt. Visibility 10km or more. Scattered Clouds 2000ft.
From till Wind variable 5kt. Visibility 10km or more. Broken Clouds 1800ft.

Nyers: KSAN 050835Z 0509/0612 VRB03KT P6SM BKN018 FM051700 VRB04KT P6SM SCT025 FM051900 27010KT P6SM SCT020 FM060200 VRB05KT P6SM BKN018

Radarkép és ultrarövid távú csapadék-előrejelzés a következő helyhez: San Diego

Szitáló eső
Enyhe
Mérsékelt
Erős
Nagyon nehéz
Jégeső

A helyzetjelző helye: San Diego. Ez az animáció bemutatja a csapadékradart az elmúlt órára vonatkozóan, valamint előrejelzést az elkövetkező 1 órára. A szitáló eső vagy enyhe hóesés láthatatlan lehet a radar számára. A csapadék intenzitása színkóddal van jelölve, a világoskéktől a narancssárgáig.

Aktuális műholdas képek ezen a helyen: San Diego, USA

A helyszín jelölő a következő helyen van elhelyezve: San Diego. [Több]

A valós idejű műholdas kép ötvözi a nappali látható fényt az éjszakai infravörös sugárzással. Éjjel a kép nem sötét, mivel az infravörös sugárzás képes érzékelni a hőmérséklet-különbségeket. Sajnos az alacsony felhőket és a ködöt nehéz megkülönböztetni a talaj hőmérsékletétől, így az éjszaka folyamán szinte láthatatlanok lehetnek. A Meteosat európai műholdképei valós időben frissülnek minden 5 percben. A GOES-16/GOES-17 (Észak- és Dél-Amerika) és Himawari (Ázsia) képei 10 percenként frissülnek.

Vissza a tetejére